As Floriana — CQFU — position and weather

sailwx.info

Track history (hours):
 
Tides and Currents Weather Stations Pressure Air Temp Water Temp Dewpoint Dewpoint Depression Visibility Wind Speed Wind Dir Waves Ship Positions

As Floriana

Last reported at 2018-Apr-06 14:03 UTC. Time now 2018-Apr-20 05:05 UTC.
Position N 43°11' E 028°02'.
Warning: this ship's position is 13 days out of date.

Length 166 m; draft 7.1 m.

Type: Cargo ship. MMSI: 255805622.

Date/timePositionNaut miles runAvg speedWind from/ knotsBaromVisibWave heightAir tempDewpointWater temp
2018-Apr-06 14:03N 43°11' E 028°02'0 2.6
2018-Apr-06 13:58N 43°11' E 028°01'4 0.8
2018-Apr-06 09:08N 43°09' E 027°57'0 0.1
2018-Apr-06 08:56N 43°09' E 027°57'0 0.0
2018-Apr-06 08:30N 43°09' E 027°57'0 0.0
2018-Apr-06 07:56N 43°09' E 027°57'0 0.0
2018-Apr-06 07:26N 43°09' E 027°57'0 0.0
2018-Apr-06 07:00N 43°09' E 027°57'0 0.1
2018-Apr-06 06:30N 43°09' E 027°57'0 0.0
2018-Apr-06 05:44N 43°09' E 027°57'0 0.0
2018-Apr-06 05:20N 43°09' E 027°57'0 0.0
2018-Apr-06 04:56N 43°09' E 027°57'0 0.0
2018-Apr-06 04:20N 43°09' E 027°57'0 0.1
2018-Apr-06 04:00N 43°09' E 027°57'0 0.1
2018-Apr-06 03:30N 43°09' E 027°57'0 0.1
2018-Apr-06 03:00N 43°09' E 027°57'0 0.0
2018-Apr-06 02:30N 43°09' E 027°57'0 0.0
2018-Apr-06 02:00N 43°09' E 027°57'0 0.0
2018-Apr-06 01:30N 43°09' E 027°57'0 0.0
2018-Apr-06 00:56N 43°09' E 027°57'0 0.0
2018-Apr-06 00:18N 43°09' E 027°57'0 0.0
2018-Apr-05 23:56N 43°09' E 027°57'0 0.1
2018-Apr-05 23:30N 43°09' E 027°57'0 0.0
2018-Apr-05 23:00N 43°09' E 027°57'0 0.0
2018-Apr-05 22:30N 43°09' E 027°57'0 0.0
2018-Apr-05 21:50N 43°09' E 027°57'0 0.0
2018-Apr-05 21:30N 43°09' E 027°57'0 0.0
2018-Apr-05 21:00N 43°09' E 027°57'0 0.0
2018-Apr-05 20:26N 43°09' E 027°57'0 0.0
2018-Apr-05 19:53N 43°09' E 027°57'0 0.0
2018-Apr-05 19:29N 43°09' E 027°57'0 0.0
2018-Apr-05 18:59N 43°09' E 027°57'0 0.0
2018-Apr-05 18:29N 43°09' E 027°57'0 0.0
2018-Apr-05 17:56N 43°09' E 027°57'0 0.0
2018-Apr-05 17:29N 43°09' E 027°57'0 0.0
2018-Apr-05 16:50N 43°09' E 027°57'0 0.0
2018-Apr-05 16:27N 43°09' E 027°57'0 0.0
2018-Apr-05 16:00N 43°09' E 027°57'0 0.0
2018-Apr-03 20:59N 43°09' E 027°57'  
2018-Mar-29 13:37N 37°46' E 025°48'110.1
2018-Mar-29 13:28N 37°44' E 025°48'510.2
2018-Mar-29 13:00N 37°40' E 025°48'710.3
2018-Mar-29 12:20N 37°33' E 025°49'3 9.7
2018-Mar-29 12:00N 37°30' E 025°49'4 8.8
2018-Mar-29 11:30N 37°26' E 025°52'4 8.5
2018-Mar-29 11:00N 37°22' E 025°55'37113.3
2018-Mar-28 07:11N 32°39' E 030°47'418.3
2018-Mar-28 07:00N 32°36' E 030°50'918.0
2018-Mar-28 06:30N 32°30' E 030°57'1318.0
2018-Mar-28 05:49N 32°20' E 031°06'818.0
2018-Mar-28 05:22N 32°14' E 031°13'718.0
2018-Mar-28 05:00N 32°09' E 031°18'917.8
2018-Mar-28 04:30N 32°02' E 031°24'3317.5
2018-Mar-28 02:38N 31°36' E 031°47'411.6
2018-Mar-28 02:19N 31°32' E 031°46'3 9.3
2018-Mar-28 02:00N 31°29' E 031°46'2 2.5
2018-Mar-28 01:20N 31°28' E 031°45'0 0.0
2018-Mar-28 00:17N 31°28' E 031°45'0 0.0
2018-Mar-27 23:56N 31°28' E 031°45'0 0.0
2018-Mar-27 22:31N 31°28' E 031°45'2 0.4
2018-Mar-27 16:24N 31°30' E 031°46'4 8.1
2018-Mar-27 15:53N 31°34' E 031°47'3 6.4
2018-Mar-27 15:30N 31°36' E 031°49'2 3.7
2018-Mar-27 14:58N 31°35' E 031°46'0 1.0
2018-Mar-27 14:31N 31°36' E 031°47'  
Track history (hours):
 
Tides and Currents Weather Stations Pressure Air Temp Water Temp Dewpoint Dewpoint Depression Visibility Wind Speed Wind Dir Waves Ship Positions

As Floriana

Last reported at 2018-Apr-06 14:03 UTC. Time now 2018-Apr-20 05:05 UTC.
Position N 43°11' E 028°02'.
Warning: this ship's position is 13 days out of date.

Length 166 m; draft 7.1 m.

Type: Cargo ship. MMSI: 255805622.

Date/timePositionNaut miles runAvg speedWind from/ knotsBaromVisibWave heightAir tempDewpointWater temp
2018-Apr-06 14:03N 43°11' E 028°02'0 2.6
2018-Apr-06 13:58N 43°11' E 028°01'4 0.8
2018-Apr-06 09:08N 43°09' E 027°57'0 0.1
2018-Apr-06 08:56N 43°09' E 027°57'0 0.0
2018-Apr-06 08:30N 43°09' E 027°57'0 0.0
2018-Apr-06 07:56N 43°09' E 027°57'0 0.0
2018-Apr-06 07:26N 43°09' E 027°57'0 0.0
2018-Apr-06 07:00N 43°09' E 027°57'0 0.1
2018-Apr-06 06:30N 43°09' E 027°57'0 0.0
2018-Apr-06 05:44N 43°09' E 027°57'0 0.0
2018-Apr-06 05:20N 43°09' E 027°57'0 0.0
2018-Apr-06 04:56N 43°09' E 027°57'0 0.0
2018-Apr-06 04:20N 43°09' E 027°57'0 0.1
2018-Apr-06 04:00N 43°09' E 027°57'0 0.1
2018-Apr-06 03:30N 43°09' E 027°57'0 0.1
2018-Apr-06 03:00N 43°09' E 027°57'0 0.0
2018-Apr-06 02:30N 43°09' E 027°57'0 0.0
2018-Apr-06 02:00N 43°09' E 027°57'0 0.0
2018-Apr-06 01:30N 43°09' E 027°57'0 0.0
2018-Apr-06 00:56N 43°09' E 027°57'0 0.0
2018-Apr-06 00:18N 43°09' E 027°57'0 0.0
2018-Apr-05 23:56N 43°09' E 027°57'0 0.1
2018-Apr-05 23:30N 43°09' E 027°57'0 0.0
2018-Apr-05 23:00N 43°09' E 027°57'0 0.0
2018-Apr-05 22:30N 43°09' E 027°57'0 0.0
2018-Apr-05 21:50N 43°09' E 027°57'0 0.0
2018-Apr-05 21:30N 43°09' E 027°57'0 0.0
2018-Apr-05 21:00N 43°09' E 027°57'0 0.0
2018-Apr-05 20:26N 43°09' E 027°57'0 0.0
2018-Apr-05 19:53N 43°09' E 027°57'0 0.0
2018-Apr-05 19:29N 43°09' E 027°57'0 0.0
2018-Apr-05 18:59N 43°09' E 027°57'0 0.0
2018-Apr-05 18:29N 43°09' E 027°57'0 0.0
2018-Apr-05 17:56N 43°09' E 027°57'0 0.0
2018-Apr-05 17:29N 43°09' E 027°57'0 0.0
2018-Apr-05 16:50N 43°09' E 027°57'0 0.0
2018-Apr-05 16:27N 43°09' E 027°57'0 0.0
2018-Apr-05 16:00N 43°09' E 027°57'0 0.0
2018-Apr-03 20:59N 43°09' E 027°57'  
2018-Mar-29 13:37N 37°46' E 025°48'110.1
2018-Mar-29 13:28N 37°44' E 025°48'510.2
2018-Mar-29 13:00N 37°40' E 025°48'710.3
2018-Mar-29 12:20N 37°33' E 025°49'3 9.7
2018-Mar-29 12:00N 37°30' E 025°49'4 8.8
2018-Mar-29 11:30N 37°26' E 025°52'4 8.5
2018-Mar-29 11:00N 37°22' E 025°55'37113.3
2018-Mar-28 07:11N 32°39' E 030°47'418.3
2018-Mar-28 07:00N 32°36' E 030°50'918.0
2018-Mar-28 06:30N 32°30' E 030°57'1318.0
2018-Mar-28 05:49N 32°20' E 031°06'818.0
2018-Mar-28 05:22N 32°14' E 031°13'718.0
2018-Mar-28 05:00N 32°09' E 031°18'917.8
2018-Mar-28 04:30N 32°02' E 031°24'3317.5
2018-Mar-28 02:38N 31°36' E 031°47'411.6
2018-Mar-28 02:19N 31°32' E 031°46'3 9.3
2018-Mar-28 02:00N 31°29' E 031°46'2 2.5
2018-Mar-28 01:20N 31°28' E 031°45'0 0.0
2018-Mar-28 00:17N 31°28' E 031°45'0 0.0
2018-Mar-27 23:56N 31°28' E 031°45'0 0.0
2018-Mar-27 22:31N 31°28' E 031°45'2 0.4
2018-Mar-27 16:24N 31°30' E 031°46'4 8.1
2018-Mar-27 15:53N 31°34' E 031°47'3 6.4
2018-Mar-27 15:30N 31°36' E 031°49'2 3.7
2018-Mar-27 14:58N 31°35' E 031°46'0 1.0
2018-Mar-27 14:31N 31°36' E 031°47'  

Dump ship's entire track history